createdAt,value
2018-01-12T00:00:30.358Z,6.02
2018-01-12T00:01:29.988Z,6.03
2018-01-12T00:02:29.743Z,6.02
2018-01-12T00:03:29.657Z,6.01
2018-01-12T00:04:30.522Z,6.03
2018-01-12T00:05:29.828Z,6.04
2018-01-12T00:06:30.146Z,6.05
2018-01-12T00:07:29.495Z,6.02
2018-01-12T00:08:29.977Z,6.01
2018-01-12T00:09:30.284Z,6
2018-01-12T00:10:29.799Z,6
2018-01-12T00:11:30.341Z,6.01
2018-01-12T00:12:29.802Z,5.99
2018-01-12T00:13:30.378Z,5.98
2018-01-12T00:14:30.762Z,5.96
2018-01-12T00:15:30.355Z,5.96
2018-01-12T00:16:30.645Z,5.93
2018-01-12T00:17:30.026Z,5.95
2018-01-12T00:18:30.275Z,5.96
2018-01-12T00:19:30.576Z,5.99
2018-01-12T00:20:29.882Z,5.97
2018-01-12T00:21:30.387Z,5.99
2018-01-12T00:22:30.585Z,5.96
2018-01-12T00:23:30.152Z,5.98
2018-01-12T00:24:30.802Z,5.97
2018-01-12T00:25:30.252Z,5.98
2018-01-12T00:26:30.499Z,5.99
2018-01-12T00:27:29.894Z,5.99
2018-01-12T00:28:30.109Z,5.98
2018-01-12T00:29:30.442Z,5.99
2018-01-12T00:30:30.219Z,5.97
2018-01-12T00:31:30.435Z,5.97
2018-01-12T00:32:30.716Z,5.94
2018-01-12T00:33:29.943Z,5.95
2018-01-12T00:34:30.625Z,5.94
2018-01-12T00:35:30.131Z,5.96
2018-01-12T00:36:30.593Z,5.93
2018-01-12T00:37:29.830Z,5.93
2018-01-12T00:38:30.182Z,5.93
2018-01-12T00:39:30.271Z,5.93
2018-01-12T00:40:30.622Z,5.92
2018-01-12T00:41:29.898Z,5.91
2018-01-12T00:42:30.351Z,5.92
2018-01-12T00:43:30.483Z,5.9
2018-01-12T00:44:29.892Z,5.88
2018-01-12T00:45:30.014Z,5.86
2018-01-12T00:46:30.283Z,5.85
2018-01-12T00:47:29.778Z,5.85
2018-01-12T00:48:30.048Z,5.86
2018-01-12T00:49:30.160Z,5.87
2018-01-12T00:50:30.471Z,5.85
2018-01-12T00:51:29.809Z,5.87
2018-01-12T00:52:30.064Z,5.79
2018-01-12T00:53:30.365Z,5.82
2018-01-12T00:54:29.669Z,5.83
2018-01-12T00:55:30.204Z,5.84
2018-01-12T00:56:30.462Z,5.84
2018-01-12T00:57:29.936Z,5.85
2018-01-12T00:58:30.375Z,5.85
2018-01-12T00:59:29.687Z,5.87
2018-01-12T01:00:30.134Z,5.84
2018-01-12T01:01:30.452Z,5.84
2018-01-12T01:02:29.909Z,5.81
2018-01-12T01:03:30.301Z,5.82
2018-01-12T01:04:30.558Z,5.83
2018-01-12T01:05:30.071Z,5.85
2018-01-12T01:06:30.352Z,5.85
2018-01-12T01:07:29.703Z,5.8
2018-01-12T01:08:30.074Z,5.8
2018-01-12T01:09:30.263Z,5.77
2018-01-12T01:10:29.908Z,5.75
2018-01-12T01:11:30.276Z,5.75
2018-01-12T01:12:29.505Z,5.75
2018-01-12T01:13:29.929Z,5.73
2018-01-12T01:14:29.496Z,5.74
2018-01-12T01:15:29.904Z,5.76
2018-01-12T01:16:29.436Z,5.74
2018-01-12T01:17:29.827Z,5.71
2018-01-12T01:18:29.940Z,5.7
2018-01-12T01:19:30.199Z,5.7
2018-01-12T01:20:30.155Z,5.71
2018-01-12T01:21:29.549Z,5.73
2018-01-12T01:22:29.638Z,5.73
2018-01-12T01:23:30.097Z,5.73
2018-01-12T01:24:29.226Z,5.74
2018-01-12T01:25:29.603Z,5.73
2018-01-12T01:26:29.924Z,5.72
2018-01-12T01:27:29.518Z,5.74
2018-01-12T01:28:29.958Z,5.74
2018-01-12T01:29:30.200Z,5.74
2018-01-12T01:30:29.496Z,5.72
2018-01-12T01:31:29.823Z,5.7
2018-01-12T01:32:30.354Z,5.68
2018-01-12T01:33:29.636Z,5.67
2018-01-12T01:34:29.994Z,5.65
2018-01-12T01:35:29.477Z,5.65
2018-01-12T01:36:29.666Z,5.63
2018-01-12T01:37:29.658Z,5.61
2018-01-12T01:38:29.256Z,5.57
2018-01-12T01:39:29.679Z,5.59
2018-01-12T01:40:29.935Z,5.59
2018-01-12T01:41:29.312Z,5.61
2018-01-12T01:42:29.777Z,5.63
2018-01-12T01:43:29.949Z,5.6
2018-01-12T01:44:30.154Z,5.62
2018-01-12T01:45:30.450Z,5.62
2018-01-12T01:46:30.576Z,5.58
2018-01-12T01:47:29.840Z,5.6
2018-01-12T01:48:30.292Z,5.62
2018-01-12T01:49:30.138Z,5.61
2018-01-12T01:50:30.365Z,5.55
2018-01-12T01:51:29.767Z,5.53
2018-01-12T01:52:30.024Z,5.55
2018-01-12T01:53:30.496Z,5.56
2018-01-12T01:55:30.656Z,5.54
2018-01-12T01:56:30.122Z,5.51
2018-01-12T01:57:30.353Z,5.45
2018-01-12T01:58:29.846Z,5.43
2018-01-12T01:59:30.186Z,5.43
2018-01-12T02:00:30.751Z,5.44
2018-01-12T02:01:29.934Z,5.41
2018-01-12T02:02:30.111Z,5.41
2018-01-12T02:03:30.582Z,5.41
2018-01-12T02:04:30.076Z,5.4
2018-01-12T02:05:30.547Z,5.41
2018-01-12T02:06:31.295Z,5.41
2018-01-12T02:07:30.664Z,5.38
2018-01-12T02:08:29.825Z,5.4
2018-01-12T02:09:30.267Z,5.42
2018-01-12T02:10:30.685Z,5.4
2018-01-12T02:11:30.156Z,5.38
2018-01-12T02:12:30.623Z,5.34
2018-01-12T02:13:29.726Z,5.34
2018-01-12T02:14:30.007Z,5.35
2018-01-12T02:15:30.456Z,5.33
2018-01-12T02:16:29.779Z,5.33
2018-01-12T02:17:30.044Z,5.32
2018-01-12T02:18:30.252Z,5.3
2018-01-12T02:19:30.487Z,5.3
2018-01-12T02:20:29.917Z,5.25
2018-01-12T02:21:30.431Z,5.28
2018-01-12T02:22:30.125Z,5.3
2018-01-12T02:23:30.508Z,5.29
2018-01-12T02:24:29.819Z,5.29
2018-01-12T02:25:30.339Z,5.31
2018-01-12T02:26:29.819Z,5.29
2018-01-12T02:27:30.365Z,5.31
2018-01-12T02:28:30.117Z,5.32
2018-01-12T02:29:30.516Z,5.32
2018-01-12T02:30:29.833Z,5.3
2018-01-12T02:31:29.920Z,5.32
2018-01-12T02:32:30.314Z,5.33
2018-01-12T02:33:29.957Z,5.3
2018-01-12T02:34:30.624Z,5.29
2018-01-12T02:35:30.116Z,5.29
2018-01-12T02:36:30.537Z,5.26
2018-01-12T02:37:30.054Z,5.28
2018-01-12T02:38:30.359Z,5.26
2018-01-12T02:39:29.989Z,5.28
2018-01-12T02:40:30.377Z,5.28
2018-01-12T02:41:29.678Z,5.29
2018-01-12T02:42:30.298Z,5.29
2018-01-12T02:43:29.800Z,5.27
2018-01-12T02:44:30.295Z,5.27
2018-01-12T02:45:30.728Z,5.25
2018-01-12T02:46:30.180Z,5.25
2018-01-12T02:47:30.712Z,5.23
2018-01-12T02:48:30.286Z,5.22
2018-01-12T02:49:31.034Z,5.25
2018-01-12T02:50:30.190Z,5.26
2018-01-12T02:51:30.369Z,5.26
2018-01-12T02:52:29.906Z,5.25
2018-01-12T02:53:30.312Z,5.24
2018-01-12T02:54:30.540Z,5.23
2018-01-12T02:55:30.436Z,5.23
2018-01-12T02:56:30.637Z,5.25
2018-01-12T02:57:29.860Z,5.23
2018-01-12T02:58:30.172Z,5.19
2018-01-12T02:59:30.635Z,5.23
2018-01-12T03:00:30.043Z,5.23
2018-01-12T03:01:30.761Z,5.23
2018-01-12T03:02:30.235Z,5.23
2018-01-12T03:03:30.664Z,5.24
2018-01-12T03:04:29.977Z,5.24
2018-01-12T03:05:30.478Z,5.26
2018-01-12T03:06:30.252Z,5.26
2018-01-12T03:07:30.045Z,5.26
2018-01-12T03:08:30.576Z,5.24
2018-01-12T03:09:29.992Z,5.21
2018-01-12T03:10:30.360Z,5.19
2018-01-12T03:11:30.572Z,5.18
2018-01-12T03:12:30.054Z,5.16
2018-01-12T03:13:30.604Z,5.12
2018-01-12T03:14:29.827Z,5.14
2018-01-12T03:15:30.088Z,5.15
2018-01-12T03:16:30.531Z,5.16
2018-01-12T03:17:30.071Z,5.16
2018-01-12T03:18:30.429Z,5.13
2018-01-12T03:19:29.926Z,5.15
2018-01-12T03:20:30.443Z,5.16
2018-01-12T03:21:29.890Z,5.17
2018-01-12T03:22:30.354Z,5.16
2018-01-12T03:23:29.944Z,5.17
2018-01-12T03:24:30.206Z,5.18
2018-01-12T03:25:29.688Z,5.15
2018-01-12T03:26:30.068Z,5.17
2018-01-12T03:27:30.398Z,5.18
2018-01-12T03:28:30.087Z,5.16
2018-01-12T03:29:29.576Z,5.15
2018-01-12T03:30:30.198Z,5.11
2018-01-12T03:31:30.355Z,5.12
2018-01-12T03:32:29.794Z,5.12
2018-01-12T03:33:30.210Z,5.14
2018-01-12T03:34:30.538Z,5.13
2018-01-12T03:35:29.841Z,5.12
2018-01-12T03:36:30.348Z,5.13
2018-01-12T03:37:29.853Z,5.1
2018-01-12T03:38:30.042Z,5.12
2018-01-12T03:39:30.353Z,5.12
2018-01-12T03:40:29.632Z,5.09
2018-01-12T03:41:30.000Z,5.11
2018-01-12T03:42:30.682Z,5.12
2018-01-12T03:43:29.955Z,5.13
2018-01-12T03:44:30.272Z,5.13
2018-01-12T03:45:29.768Z,5.09
2018-01-12T03:46:29.941Z,5.11
2018-01-12T03:47:29.214Z,5.11
2018-01-12T03:48:29.620Z,5.12
2018-01-12T03:49:29.807Z,5.12
2018-01-12T03:50:29.372Z,5.13
2018-01-12T03:51:29.776Z,5.12
2018-01-12T03:52:29.354Z,5.12
2018-01-12T03:53:29.835Z,5.11
2018-01-12T03:54:30.085Z,5.1
2018-01-12T03:55:29.365Z,5.07
2018-01-12T03:56:29.825Z,5.08
2018-01-12T03:57:29.338Z,5.08
2018-01-12T03:58:29.654Z,5.09
2018-01-12T03:59:29.912Z,5.08
2018-01-12T04:00:29.152Z,5.11
2018-01-12T04:01:29.552Z,5.11
2018-01-12T04:02:29.968Z,5.13
2018-01-12T04:03:29.405Z,5.11
2018-01-12T04:04:29.923Z,5.11
2018-01-12T04:05:29.428Z,5.09
2018-01-12T04:06:29.849Z,5.05
2018-01-12T04:07:30.125Z,5.04
2018-01-12T04:08:29.478Z,5.05
2018-01-12T04:09:29.914Z,5.02
2018-01-12T04:10:30.165Z,5.03
2018-01-12T04:11:29.714Z,5.03
2018-01-12T04:12:29.567Z,5.03
2018-01-12T04:13:29.994Z,5.04
2018-01-12T04:14:29.492Z,5.05
2018-01-12T04:15:29.844Z,5.04
2018-01-12T04:16:30.390Z,5
2018-01-12T04:17:30.717Z,5.01
2018-01-12T04:18:30.009Z,5.01
2018-01-12T04:19:30.434Z,4.99
2018-01-12T04:20:30.672Z,5
2018-01-12T04:21:30.106Z,5.02
2018-01-12T04:22:30.636Z,5.03
2018-01-12T04:23:29.844Z,5.04
2018-01-12T04:24:30.266Z,5.03
2018-01-12T04:25:30.592Z,5.04
2018-01-12T04:26:29.776Z,5.05
2018-01-12T04:27:30.069Z,5.05
2018-01-12T04:28:30.249Z,5.06
2018-01-12T04:29:30.413Z,5.05
2018-01-12T04:30:29.882Z,5.03
2018-01-12T04:31:30.289Z,5.03
2018-01-12T04:32:30.516Z,5
2018-01-12T04:33:30.027Z,5.02
2018-01-12T04:34:30.101Z,5.01
2018-01-12T04:35:30.288Z,5
2018-01-12T04:36:30.375Z,5.01
2018-01-12T04:37:30.546Z,4.98
2018-01-12T04:38:29.811Z,4.99
2018-01-12T04:39:30.037Z,5.01
2018-01-12T04:40:30.316Z,5.02
2018-01-12T04:41:30.551Z,4.99
2018-01-12T04:42:29.877Z,5.01
2018-01-12T04:43:30.044Z,5.02
2018-01-12T04:44:30.410Z,5.02
2018-01-12T04:45:30.896Z,5
2018-01-12T04:46:30.120Z,5
2018-01-12T04:47:30.425Z,4.98
2018-01-12T04:48:30.747Z,4.98
2018-01-12T04:49:29.929Z,4.99
2018-01-12T04:50:30.392Z,4.98
2018-01-12T04:51:29.935Z,4.97
2018-01-12T04:52:30.445Z,4.98
2018-01-12T04:53:29.901Z,4.98
2018-01-12T04:54:30.378Z,4.98
2018-01-12T04:55:30.787Z,4.96
2018-01-12T04:56:30.283Z,4.96
2018-01-12T04:57:30.902Z,4.95
2018-01-12T04:58:30.406Z,4.95
2018-01-12T04:59:29.869Z,4.96
2018-01-12T05:00:30.437Z,4.95
2018-01-12T05:01:29.955Z,4.95
2018-01-12T05:02:30.465Z,4.96
2018-01-12T05:03:30.071Z,4.95
2018-01-12T05:04:30.580Z,4.91
2018-01-12T05:05:30.357Z,4.94
2018-01-12T05:06:29.855Z,4.94
2018-01-12T05:07:30.362Z,4.93
2018-01-12T05:08:29.918Z,4.93
2018-01-12T05:09:30.788Z,4.92
2018-01-12T05:10:30.471Z,4.92
2018-01-12T05:11:30.037Z,4.89
2018-01-12T05:12:30.604Z,4.87
2018-01-12T05:13:30.214Z,4.87
2018-01-12T05:14:30.729Z,4.86
2018-01-12T05:15:30.301Z,4.86
2018-01-12T05:16:30.072Z,4.86
2018-01-12T05:17:30.575Z,4.83
2018-01-12T05:18:30.026Z,4.88
2018-01-12T05:19:30.763Z,4.88
2018-01-12T05:20:30.201Z,4.88
2018-01-12T05:21:30.691Z,4.89
2018-01-12T05:22:30.655Z,4.89
2018-01-12T05:23:30.120Z,4.87
2018-01-12T05:24:30.477Z,4.83
2018-01-12T05:25:30.788Z,4.83
2018-01-12T05:26:30.375Z,4.82
2018-01-12T05:27:30.816Z,4.79
2018-01-12T05:28:30.131Z,4.79
2018-01-12T05:29:30.407Z,4.8
2018-01-12T05:30:30.667Z,4.76
2018-01-12T05:31:30.922Z,4.77
2018-01-12T05:32:30.324Z,4.78
2018-01-12T05:33:30.495Z,4.78
2018-01-12T05:34:30.852Z,4.77
2018-01-12T05:35:30.115Z,4.77
2018-01-12T05:36:30.443Z,4.75
2018-01-12T05:37:30.818Z,4.75
2018-01-12T05:38:30.185Z,4.75
2018-01-12T05:39:30.581Z,4.74
2018-01-12T05:40:30.061Z,4.74
2018-01-12T05:41:30.318Z,4.73
2018-01-12T05:42:30.792Z,4.73
2018-01-12T05:43:30.090Z,4.73
2018-01-12T05:44:30.520Z,4.74
2018-01-12T05:45:30.899Z,4.73
2018-01-12T05:46:30.114Z,4.73
2018-01-12T05:47:30.792Z,4.75
2018-01-12T05:48:30.413Z,4.77
2018-01-12T05:49:30.869Z,4.76
2018-01-12T05:50:30.156Z,4.76
2018-01-12T05:51:30.417Z,4.76
2018-01-12T05:52:30.642Z,4.77
2018-01-12T05:53:31.129Z,4.75
2018-01-12T05:54:30.259Z,4.76
2018-01-12T05:55:30.472Z,4.75
2018-01-12T05:56:30.695Z,4.76
2018-01-12T05:57:30.168Z,4.76
2018-01-12T05:58:30.605Z,4.76
2018-01-12T05:59:30.881Z,4.75
2018-01-12T06:00:30.201Z,4.75
2018-01-12T06:01:30.396Z,4.76
2018-01-12T06:02:30.876Z,4.76
2018-01-12T06:03:31.114Z,4.76
2018-01-12T06:04:30.390Z,4.76
2018-01-12T06:05:30.623Z,4.74
2018-01-12T06:06:30.917Z,4.73
2018-01-12T06:07:30.115Z,4.73
2018-01-12T06:08:30.647Z,4.72
2018-01-12T06:09:30.247Z,4.73
2018-01-12T06:10:30.530Z,4.73
2018-01-12T06:11:30.716Z,4.73
2018-01-12T06:12:30.973Z,4.71
2018-01-12T06:13:30.519Z,4.72
2018-01-12T06:14:30.965Z,4.72
2018-01-12T06:15:30.376Z,4.7
2018-01-12T06:16:30.549Z,4.67
2018-01-12T06:17:29.924Z,4.66
2018-01-12T06:18:30.396Z,4.67
2018-01-12T06:19:29.792Z,4.67
2018-01-12T06:20:30.318Z,4.67
2018-01-12T06:21:30.406Z,4.67
2018-01-12T06:22:29.607Z,4.72
2018-01-12T06:23:29.759Z,4.74
2018-01-12T06:24:30.191Z,4.75
2018-01-12T06:25:29.653Z,4.74
2018-01-12T06:26:30.076Z,4.75
2018-01-12T06:27:30.362Z,4.76
2018-01-12T06:28:30.497Z,4.76
2018-01-12T06:29:29.768Z,4.77
2018-01-12T06:30:29.880Z,4.79
2018-01-12T06:31:30.357Z,4.75
2018-01-12T06:32:29.785Z,4.75
2018-01-12T06:33:30.009Z,4.76
2018-01-12T06:34:30.273Z,4.78
2018-01-12T06:35:30.413Z,4.79
2018-01-12T06:36:29.820Z,4.79
2018-01-12T06:37:30.220Z,4.78
2018-01-12T06:38:30.230Z,4.79
2018-01-12T06:39:30.423Z,4.79
2018-01-12T06:40:30.533Z,4.79
2018-01-12T06:41:29.925Z,4.8
2018-01-12T06:42:30.204Z,4.79
2018-01-12T06:43:30.384Z,4.78
2018-01-12T06:44:29.774Z,4.79
2018-01-12T06:45:29.867Z,4.78
2018-01-12T06:46:30.085Z,4.78
2018-01-12T06:47:30.350Z,4.79
2018-01-12T06:48:30.072Z,4.79
2018-01-12T06:49:29.472Z,4.76
2018-01-12T06:50:29.912Z,4.79
2018-01-12T06:51:29.970Z,4.78
2018-01-12T06:52:29.461Z,4.79
2018-01-12T06:53:29.825Z,4.79
2018-01-12T06:54:30.160Z,4.78
2018-01-12T06:55:29.414Z,4.78
2018-01-12T06:56:29.566Z,4.79
2018-01-12T06:57:29.906Z,4.8
2018-01-12T06:58:30.038Z,4.8
2018-01-12T06:59:30.351Z,4.8
2018-01-12T07:00:29.672Z,4.8
2018-01-12T07:01:29.966Z,4.79
2018-01-12T07:02:30.208Z,4.81
2018-01-12T07:03:29.746Z,4.81
2018-01-12T07:04:30.299Z,4.81
2018-01-12T07:05:29.639Z,4.81
2018-01-12T07:06:30.174Z,4.8
2018-01-12T07:07:29.695Z,4.8
2018-01-12T07:08:30.132Z,4.81
2018-01-12T07:09:29.439Z,4.81
2018-01-12T07:10:29.700Z,4.82
2018-01-12T07:11:29.876Z,4.82
2018-01-12T07:12:30.195Z,4.81
2018-01-12T07:13:29.644Z,4.8
2018-01-12T07:14:30.091Z,4.81
2018-01-12T07:15:30.310Z,4.8
2018-01-12T07:16:29.647Z,4.78
2018-01-12T07:17:29.993Z,4.77
2018-01-12T07:18:29.792Z,4.78
2018-01-12T07:19:30.292Z,4.79
2018-01-12T07:20:29.718Z,4.78
2018-01-12T07:21:30.157Z,4.78
2018-01-12T07:22:30.578Z,4.79
2018-01-12T07:23:30.241Z,4.79
2018-01-12T07:24:30.692Z,4.79
2018-01-12T07:25:30.149Z,4.79
2018-01-12T07:26:30.342Z,4.8
2018-01-12T07:27:30.688Z,4.78
2018-01-12T07:28:30.144Z,4.79
2018-01-12T07:29:30.528Z,4.77
2018-01-12T07:30:29.992Z,4.77
2018-01-12T07:31:30.234Z,4.78
2018-01-12T07:32:30.432Z,4.77
2018-01-12T07:33:30.058Z,4.78
2018-01-12T07:34:30.429Z,4.79
2018-01-12T07:35:29.731Z,4.8
2018-01-12T07:36:30.293Z,4.81
2018-01-12T07:37:30.666Z,4.79
2018-01-12T07:38:29.878Z,4.8
2018-01-12T07:39:30.282Z,4.78
2018-01-12T07:40:30.754Z,4.79
2018-01-12T07:41:29.977Z,4.76
2018-01-12T07:42:30.291Z,4.78
2018-01-12T07:43:30.636Z,4.76
2018-01-12T07:44:30.076Z,4.77
2018-01-12T07:45:30.515Z,4.78
2018-01-12T07:46:30.715Z,4.79
2018-01-12T07:47:30.281Z,4.79
2018-01-12T07:48:30.638Z,4.8
2018-01-12T07:49:30.012Z,4.8
2018-01-12T07:50:30.503Z,4.78
2018-01-12T07:51:29.733Z,4.79
2018-01-12T07:52:30.596Z,4.8
2018-01-12T07:53:30.240Z,4.8
2018-01-12T07:54:30.459Z,4.79
2018-01-12T07:55:30.072Z,4.8
2018-01-12T07:56:29.568Z,4.81
2018-01-12T07:57:29.717Z,4.82
2018-01-12T07:58:30.023Z,4.82
2018-01-12T07:59:30.195Z,4.83
2018-01-12T08:00:30.490Z,4.83
2018-01-12T08:01:29.699Z,4.83
2018-01-12T08:02:29.952Z,4.85
2018-01-12T08:03:30.080Z,4.82
2018-01-12T08:04:30.449Z,4.83
2018-01-12T08:05:29.821Z,4.83
2018-01-12T08:06:30.028Z,4.84
2018-01-12T08:07:30.165Z,4.83
2018-01-12T08:08:30.468Z,4.83
2018-01-12T08:09:30.102Z,4.83
2018-01-12T08:10:30.419Z,4.83
2018-01-12T08:11:29.766Z,4.83
2018-01-12T08:12:29.734Z,4.84
2018-01-12T08:13:30.110Z,4.84
2018-01-12T08:14:30.501Z,4.82
2018-01-12T08:15:29.778Z,4.83
2018-01-12T08:16:30.425Z,4.85
2018-01-12T08:17:29.725Z,4.84
2018-01-12T08:18:30.017Z,4.85
2018-01-12T08:19:30.431Z,4.82
2018-01-12T08:20:29.843Z,4.83
2018-01-12T08:21:30.311Z,4.84
2018-01-12T08:22:29.911Z,4.82
2018-01-12T08:23:29.980Z,4.83
2018-01-12T08:24:29.406Z,4.83
2018-01-12T08:25:29.551Z,4.85
2018-01-12T08:26:29.921Z,4.85
2018-01-12T08:27:30.210Z,4.86
2018-01-12T08:28:29.723Z,4.84
2018-01-12T08:29:30.086Z,4.85
2018-01-12T08:30:30.173Z,4.86
2018-01-12T08:31:29.754Z,4.9
2018-01-12T08:32:29.955Z,4.88
2018-01-12T08:33:29.467Z,4.89
2018-01-12T08:34:30.022Z,4.9
2018-01-12T08:35:30.330Z,4.92
2018-01-12T08:36:29.927Z,4.93
2018-01-12T08:37:30.148Z,4.94
2018-01-12T08:38:30.359Z,4.95
2018-01-12T08:39:29.785Z,4.91
2018-01-12T08:40:30.168Z,4.94
2018-01-12T08:41:29.529Z,4.94
2018-01-12T08:42:29.376Z,4.94
2018-01-12T08:43:29.870Z,4.94
2018-01-12T08:44:30.007Z,4.94
2018-01-12T08:45:30.218Z,4.94
2018-01-12T08:46:29.481Z,4.94
2018-01-12T08:47:29.762Z,4.94
2018-01-12T08:48:30.016Z,4.96
2018-01-12T08:49:30.374Z,4.95
2018-01-12T08:50:30.488Z,4.96
2018-01-12T08:51:29.925Z,4.97
2018-01-12T08:52:29.545Z,4.99
2018-01-12T08:53:29.913Z,4.99
2018-01-12T08:54:30.169Z,5
2018-01-12T08:55:29.492Z,5.01
2018-01-12T08:56:29.868Z,5
2018-01-12T08:57:30.022Z,5
2018-01-12T08:58:30.303Z,5.01
2018-01-12T08:59:29.693Z,5.03
2018-01-12T09:00:30.099Z,5.02
2018-01-12T09:01:29.571Z,5.01
2018-01-12T09:02:30.001Z,5.01
2018-01-12T09:03:30.372Z,5.01
2018-01-12T09:04:29.708Z,5.01
2018-01-12T09:05:29.955Z,5.03
2018-01-12T09:06:30.346Z,5.03
2018-01-12T09:07:29.631Z,5.02
2018-01-12T09:08:29.934Z,5.02
2018-01-12T09:09:30.262Z,5.04
2018-01-12T09:10:29.520Z,5.04
2018-01-12T09:11:29.884Z,5.04
2018-01-12T09:12:29.925Z,5.04
2018-01-12T09:13:30.214Z,5.06
2018-01-12T09:14:29.593Z,5.07
2018-01-12T09:15:29.957Z,5.08
2018-01-12T09:16:30.164Z,5.1
2018-01-12T09:17:30.384Z,5.1
2018-01-12T09:18:29.721Z,5.12
2018-01-12T09:19:30.051Z,5.12
2018-01-12T09:20:29.441Z,5.14
2018-01-12T09:21:29.981Z,5.16
2018-01-12T09:22:30.281Z,5.16
2018-01-12T09:23:30.602Z,5.14
2018-01-12T09:24:30.763Z,5.15
2018-01-12T09:25:30.157Z,5.15
2018-01-12T09:26:30.276Z,5.16
2018-01-12T09:27:30.513Z,5.16
2018-01-12T09:28:30.822Z,5.19
2018-01-12T09:29:30.039Z,5.24
2018-01-12T09:30:30.428Z,5.24
2018-01-12T09:31:30.741Z,5.25
2018-01-12T09:32:30.216Z,5.26
2018-01-12T09:33:30.630Z,5.26
2018-01-12T09:34:30.816Z,5.26
2018-01-12T09:35:30.298Z,5.27
2018-01-12T09:36:30.623Z,5.32
2018-01-12T09:37:30.831Z,5.33
2018-01-12T09:38:30.274Z,5.36
2018-01-12T09:39:30.570Z,5.38
2018-01-12T09:40:30.782Z,5.36
2018-01-12T09:41:30.915Z,5.35
2018-01-12T09:42:30.322Z,5.36
2018-01-12T09:43:30.653Z,5.4
2018-01-12T09:44:30.914Z,5.38
2018-01-12T09:45:30.375Z,5.4
2018-01-12T09:46:30.018Z,5.44
2018-01-12T09:47:30.319Z,5.45
2018-01-12T09:48:30.489Z,5.48
2018-01-12T09:49:30.687Z,5.51
2018-01-12T09:50:30.061Z,5.55
2018-01-12T09:51:30.642Z,5.58
2018-01-12T09:52:30.045Z,5.59
2018-01-12T09:53:30.432Z,5.46
2018-01-12T09:54:29.822Z,5.49
2018-01-12T09:55:30.458Z,5.5
2018-01-12T09:56:29.956Z,5.49
2018-01-12T09:57:30.376Z,5.5
2018-01-12T09:58:29.590Z,5.49
2018-01-12T09:59:29.891Z,5.46
2018-01-12T10:00:30.335Z,5.47
2018-01-12T10:01:31.746Z,5.45
2018-01-12T10:02:29.791Z,5.45
2018-01-12T10:03:30.439Z,5.44
2018-01-12T10:05:30.102Z,5.47
2018-01-12T10:06:30.163Z,5.48
2018-01-12T10:07:30.015Z,5.5
2018-01-12T10:08:29.693Z,5.5
2018-01-12T10:09:29.680Z,5.5
2018-01-12T10:10:30.994Z,5.52
2018-01-12T10:11:30.205Z,5.52
2018-01-12T10:12:30.020Z,5.52
2018-01-12T10:13:30.251Z,5.5
2018-01-12T10:14:30.738Z,5.52
2018-01-12T10:15:30.070Z,5.55
2018-01-12T10:16:30.485Z,5.54
2018-01-12T10:17:30.086Z,5.56
2018-01-12T10:18:29.655Z,5.57
2018-01-12T10:19:29.989Z,5.59
2018-01-12T10:20:30.147Z,5.59
2018-01-12T10:21:30.334Z,5.6
2018-01-12T10:22:30.100Z,5.6
2018-01-12T10:23:30.582Z,5.59
2018-01-12T10:24:30.298Z,5.61
2018-01-12T10:25:30.569Z,5.59
2018-01-12T10:26:30.686Z,5.59
2018-01-12T10:27:30.997Z,5.6
2018-01-12T10:28:30.617Z,5.59
2018-01-12T10:29:30.753Z,5.6
2018-01-12T10:30:30.887Z,5.6
2018-01-12T10:31:30.415Z,5.57
2018-01-12T10:32:30.438Z,5.59
2018-01-12T10:33:30.734Z,5.56
2018-01-12T10:34:31.071Z,5.56
2018-01-12T10:35:30.534Z,5.57
2018-01-12T10:36:30.794Z,5.59
2018-01-12T10:37:31.063Z,5.61
2018-01-12T10:38:30.155Z,5.62
2018-01-12T10:39:30.573Z,5.64
2018-01-12T10:40:30.880Z,5.59
2018-01-12T10:41:30.454Z,5.58
2018-01-12T10:42:30.902Z,5.59
2018-01-12T10:43:30.281Z,5.61
2018-01-12T10:44:30.774Z,5.61
2018-01-12T10:45:30.104Z,5.65
2018-01-12T10:46:30.316Z,5.66
2018-01-12T10:47:30.726Z,5.67
2018-01-12T10:48:31.048Z,5.68
2018-01-12T10:49:30.704Z,5.69
2018-01-12T10:50:30.254Z,5.69
2018-01-12T10:51:30.566Z,5.71
2018-01-12T10:52:31.001Z,5.72
2018-01-12T10:53:29.969Z,5.73
2018-01-12T10:54:30.212Z,5.75
2018-01-12T10:55:30.488Z,5.73
2018-01-12T10:56:30.885Z,5.72
2018-01-12T10:57:30.161Z,5.73
2018-01-12T10:58:30.568Z,5.75
2018-01-12T10:59:30.833Z,5.77
2018-01-12T11:00:30.314Z,5.77
2018-01-12T11:01:30.533Z,5.77
2018-01-12T11:02:30.835Z,5.78
2018-01-12T11:03:30.154Z,5.8
2018-01-12T11:04:30.462Z,5.82
2018-01-12T11:05:30.506Z,5.83
2018-01-12T11:06:30.876Z,5.84
2018-01-12T11:07:30.199Z,5.85
2018-01-12T11:08:30.405Z,5.86
2018-01-12T11:09:30.549Z,5.87
2018-01-12T11:10:30.680Z,5.86
2018-01-12T11:11:30.616Z,5.88
2018-01-12T11:12:30.896Z,5.88
2018-01-12T11:13:30.227Z,5.9
2018-01-12T11:14:30.729Z,5.92
2018-01-12T11:15:30.914Z,5.92
2018-01-12T11:16:30.370Z,5.93
2018-01-12T11:17:30.572Z,5.94
2018-01-12T11:18:30.750Z,5.96
2018-01-12T11:19:30.155Z,5.97
2018-01-12T11:20:30.422Z,5.98
2018-01-12T11:21:30.610Z,6
2018-01-12T11:22:30.922Z,6.01
2018-01-12T11:23:30.163Z,6.02
2018-01-12T11:24:31.021Z,6.04
2018-01-12T11:25:30.149Z,6.06
2018-01-12T11:26:30.497Z,6.07
2018-01-12T11:27:30.712Z,6.09
2018-01-12T11:28:31.051Z,6.1
2018-01-12T11:29:30.238Z,6.09
2018-01-12T11:30:30.332Z,6.11
2018-01-12T11:31:30.925Z,6.11
2018-01-12T11:32:30.418Z,6.12
2018-01-12T11:33:30.745Z,6.12
2018-01-12T11:34:31.033Z,6.11
2018-01-12T11:35:30.132Z,6.1
2018-01-12T11:36:30.412Z,6.09
2018-01-12T11:37:30.878Z,6.11
2018-01-12T11:38:30.243Z,6.12
2018-01-12T11:39:30.424Z,6.13
2018-01-12T11:40:30.596Z,6.13
2018-01-12T11:41:30.685Z,6.11
2018-01-12T11:42:30.865Z,6.1
2018-01-12T11:43:30.287Z,6.08
2018-01-12T11:44:30.585Z,6.09
2018-01-12T11:45:30.904Z,6.09
2018-01-12T11:46:30.114Z,6.11
2018-01-12T11:47:30.168Z,6.11
2018-01-12T11:48:30.455Z,6.09
2018-01-12T11:49:30.832Z,6.11
2018-01-12T11:50:30.938Z,6.1
2018-01-12T11:51:30.138Z,6.09
2018-01-12T11:52:30.452Z,6.07
2018-01-12T11:53:30.868Z,6.06
2018-01-12T11:54:30.277Z,6.06
2018-01-12T11:55:30.557Z,6.06
2018-01-12T11:56:30.650Z,6.05
2018-01-12T11:57:29.962Z,6.07
2018-01-12T11:58:30.300Z,6.07
2018-01-12T11:59:30.596Z,6.09
2018-01-12T12:00:29.824Z,6.1
2018-01-12T12:01:29.957Z,6.12
2018-01-12T12:02:30.176Z,6.16
2018-01-12T12:03:30.793Z,6.17
2018-01-12T12:04:30.237Z,6.2
2018-01-12T12:05:30.589Z,6.23
2018-01-12T12:06:29.876Z,6.25
2018-01-12T12:07:30.249Z,6.31
2018-01-12T12:08:31.074Z,6.36
2018-01-12T12:09:30.307Z,6.38
2018-01-12T12:10:30.563Z,6.42
2018-01-12T12:11:30.696Z,6.45
2018-01-12T12:12:29.926Z,6.5
2018-01-12T12:13:30.340Z,6.52
2018-01-12T12:14:30.733Z,6.5
2018-01-12T12:15:30.327Z,6.55
2018-01-12T12:16:30.617Z,6.58
2018-01-12T12:17:30.330Z,6.63
2018-01-12T12:18:30.513Z,6.67
2018-01-12T12:19:29.881Z,6.68
2018-01-12T12:20:30.280Z,6.69
2018-01-12T12:21:32.312Z,6.68
2018-01-12T12:22:30.204Z,6.71
2018-01-12T12:23:30.415Z,6.74
2018-01-12T12:24:34.018Z,6.74
2018-01-12T12:25:30.764Z,6.74
2018-01-12T12:26:30.281Z,6.72
2018-01-12T12:27:30.316Z,6.71
2018-01-12T12:28:30.763Z,6.7
2018-01-12T12:29:30.118Z,6.67
2018-01-12T12:30:30.116Z,6.65
2018-01-12T12:31:30.589Z,6.66
2018-01-12T12:32:31.865Z,6.65
2018-01-12T12:33:31.745Z,6.64
2018-01-12T12:34:30.857Z,6.65
2018-01-12T12:35:30.446Z,6.66
2018-01-12T12:36:30.719Z,6.65
2018-01-12T12:37:30.086Z,6.65
2018-01-12T12:38:30.461Z,6.66
2018-01-12T12:39:30.573Z,6.65
2018-01-12T12:40:30.912Z,6.63
2018-01-12T12:41:30.364Z,6.63
2018-01-12T12:42:30.108Z,6.66
2018-01-12T12:43:30.495Z,6.7
2018-01-12T12:44:30.981Z,6.68
2018-01-12T12:45:30.534Z,6.68
2018-01-12T12:46:30.909Z,6.68
2018-01-12T12:47:30.240Z,6.63
2018-01-12T12:48:30.641Z,6.63
2018-01-12T12:49:30.958Z,6.61
2018-01-12T12:50:30.866Z,6.58
2018-01-12T12:51:30.197Z,6.59
2018-01-12T12:52:30.543Z,6.58
2018-01-12T12:53:30.888Z,6.58
2018-01-12T12:54:30.363Z,6.58
2018-01-12T12:55:30.899Z,6.59
2018-01-12T12:56:30.271Z,6.55
2018-01-12T12:57:30.655Z,6.56
2018-01-12T12:58:30.072Z,6.55
2018-01-12T12:59:31.614Z,6.57
2018-01-12T13:00:30.018Z,6.56
2018-01-12T13:01:30.521Z,6.57
2018-01-12T13:02:31.525Z,6.56
2018-01-12T13:03:30.779Z,6.55
2018-01-12T13:04:30.038Z,6.55
2018-01-12T13:05:30.456Z,6.56
2018-01-12T13:06:30.000Z,6.57
2018-01-12T13:07:30.064Z,6.56
2018-01-12T13:08:30.270Z,6.56
2018-01-12T13:09:32.074Z,6.55
2018-01-12T13:10:32.633Z,6.54
2018-01-12T13:11:33.336Z,6.55
2018-01-12T13:12:30.215Z,6.56
2018-01-12T13:13:32.553Z,6.58
2018-01-12T13:14:30.996Z,6.57
2018-01-12T13:15:30.374Z,6.58
2018-01-12T13:16:30.636Z,6.57
2018-01-12T13:17:30.142Z,6.56
2018-01-12T13:18:31.509Z,6.57
2018-01-12T13:19:30.376Z,6.58
2018-01-12T13:20:30.640Z,6.58
2018-01-12T13:21:30.568Z,6.59
2018-01-12T13:22:29.955Z,6.59
2018-01-12T13:23:30.193Z,6.57